SHMÚ 65 rokov / 1954-2019 - Ďakujeme našim partnerom


SHMÚ vydal meteorologické výstrahy na Vietor na horách Display warnings

TAF

Aerodrome Forecast TAF

TAF description (Slovak)

17.11.2019 - 05:00 UTC

TAF LZIB 170500Z 1706/1806 06005KT 6000 BKN012
    TEMPO 1706/1708 4000 -RA SCT007 OVC010
    BECMG 1708/1710 11012KT 9999 BKN015
    BECMG 1800/1802 5000 -RA BKN033 OVC060=
TAF LZKZ 170500Z 1706/1806 05004KT CAVOK
    PROB40 TEMPO 1706/1708 VRB02KT 2000 BCFG SCT005 SCT020
    BECMG 1708/1710 01006KT SCT033 BKN070=
TAF LZTT 170500Z 1706/1806 VRB02KT 4000 BR FEW002 BKN035
    PROB40 1706/1708 0400 FG BKN002
    BECMG 1708/1710 11004KT 9999 SCT030 BKN070=

17.11.2019 - 05:00 UTC

TAF LZSL 170500Z 1706/1715 06004KT CAVOK
    TEMPO 1706/1708 VRB02KT 4000 MIFG SCT005 SCT033=
TAF LZPP 170500Z 1706/1715 11010KT CAVOK
    TEMPO 1706/1715 13015G25KT 9999 SCT030 BKN060=
TAF LZZI 170500Z 1706/1715 VRB02KT 9999 SCT040 BKN060
    TEMPO 1706/1709 2400 BCFG BKN004
    PROB30 TEMPO 1706/1708 0600 FG OVC002=

17.11.2019 - 02:00 UTC

TAF LZSL 170200Z 1703/1712 06003KT 5000 BR SCT020 OVC035
    TEMPO 1703/1708 VRB02KT 2400 MIFG SCT005 SCT033
    TEMPO 1704/1708 0800 FG BKN003=
TAF LZZI 170200Z 1703/1712 VRB02KT 9999 FEW050 BKN085
    TEMPO 1703/1705 5000 -RA BKN024 OVC040
    TEMPO 1703/1709 2400 BCFG BKN004
    PROB30 TEMPO 1703/1708 0600 FG OVC002=

skok na menu ↑


skok na začiatok stránky ↑